Columbus, OH (43266)

7:47 PM EDT on September 01, 2014 (GMT -0400)
Forest Park East | Change Station
CLOSE
Current Station
Personal Weather Station
Location: Columbus, OH
Elevation: 892 ft
Nearby Weather Stations

Elev 892 ft 40.08 °N, 82.96 °W | Updated 6 minutes ago

Partly Cloudy
Partly Cloudy
81.9 °F
Feels Like 86 °F
N
-
Wind Variable Wind from North

Today
High -- | Low -- °F
--% Chance of Precip.
Yesterday
High -- | Low -- °F
Precip. -- in
6:59 AM 8:03 PM
Waxing Crescent, 45% visible
Pressure 29.88 in
Visibility 10.0 miles
Clouds Scattered Clouds 4000 ft
Mostly Cloudy 11000 ft
Mostly Cloudy 16000 ft
Heat Index 86 °F
Dew Point 71 °F
Humidity 70%
Rainfall -999.00 in
Snow Depth Not available.
UV 0 out of 12
Pollen 9.90 out of 12
Ozone Good
PM2.5 Moderate
Flu Activity Not available.
METAR KCMH 012251Z COR 22012KT 10SM SCT040 BKN110 BKN160 29/21 A2990 RMK AO2 SLP118 OCNL LTG DSNT S CB DSNT S T02940206

More Conditions Fewer Conditions

Pressure 29.88 in
Visibility 10.0 miles
Clouds Scattered Clouds 4000 ft
Mostly Cloudy 11000 ft
Mostly Cloudy 16000 ft
Heat Index 86 °F
Dew Point 71 °F
Humidity 70%
Rainfall -999.00 in
Snow Depth Not available.
UV 0 out of 12
Pollen 9.90 out of 12
Ozone Good
PM2.5 Moderate
Flu Activity Not available.
METAR KCMH 012251Z COR 22012KT 10SM SCT040 BKN110 BKN160 29/21 A2990 RMK AO2 SLP118 OCNL LTG DSNT S CB DSNT S T02940206

More Conditions Fewer Conditions

10-Day Weather Forecast

Almanac

Astronomy

Sep. 01, 2014 Rise Set
Actual Time 6:59 AM EDT 8:03 PM EDT
Civil Twilight 6:31 AM EDT 8:31 PM EDT
Nautical Twilight 5:58 AM EDT 9:04 PM EDT
Astronomical Twilight 5:23 AM EDT 9:38 PM EDT
Moon 1:44 PM EDT No Moon Set
Length of Visible Light 13h 59m
Length of Day
13h 03m
Tomorrow will be 2m 32s shorter.
Waxing Crescent, 45% of the Moon is Illuminated
Today
Waxing Crescent
Sep 2
First Quarter
Sep 8
Full
Sep 15
Last Quarter
Sep 24
New

Today's Extremes

State Highs State Lows

Community

WunderPhotos

Upload Photos

1,749,440 photos uploaded!

Nearby

Air Quality

  Air Quality AQ Index Pollutant
Yesterday Good
PM2.5
Yesterday Good
OZONE
Current Moderate
PM2.5
Current Good
OZONE
Monday Good
OZONE
Monday Good
PM2.5
Tuesday Good
PM2.5
Tuesday Good
OZONE
Wednesday Moderate
PM2.5
Wednesday Moderate
OZONE
Thursday Moderate
OZONE
Thursday Moderate
PM2.5
Friday Moderate
OZONE
Friday Moderate
PM2.5
Saturday Good
OZONE
Saturday Good
PM2.5

Snow Depth

Station Depth Elevation
No new snow has been reported.

Earthquake Activity

City Distance Mag. Time & Date
No recent earthquake activity has been reported nearby.
Minimum magnitude displayed is 2.5.

Coastal Water Temperatures

Place Temperature
No Stations Reporting

Nearby Weather Stations